Time;durP1;ratioP1;P1;durP2;ratioP2;P2;SDS_P1;SDS_P2;PMS_P1;PMS_P2;Temp;Humidity;BMP_temperature;BMP_pressure;BME280_temperature;BME280_humidity;BME280_pressure;Samples;Min_cycle;Max_cycle;Signal;HPM_P1;HPM_P2
2022/03/29 00:00:39;;;;;;;81.63;23.05;;;6.80;99.90;;;;;;5011902;28;20132;-71
2022/03/29 00:03:09;;;;;;;71.78;21.50;;;6.70;99.90;;;;;;5012466;28;20038;-70
2022/03/29 00:05:35;;;;;;;70.07;20.27;;;6.70;99.90;;;;;;5011308;28;20064;-72
2022/03/29 00:08:02;;;;;;;71.63;21.10;;;6.70;99.90;;;;;;4998413;28;20038;-70
2022/03/29 00:10:28;;;;;;;74.43;23.87;;;6.60;99.90;;;;;;5016354;28;20050;-71
2022/03/29 00:12:53;;;;;;;65.32;18.48;;;6.60;99.90;;;;;;5016294;28;20389;-69
2022/03/29 00:15:21;;;;;;;70.85;21.05;;;6.60;99.90;;;;;;5016324;28;20433;-69
2022/03/29 00:17:47;;;;;;;66.15;19.63;;;6.60;99.90;;;;;;5015964;28;20050;-71
2022/03/29 00:20:14;;;;;;;66.53;20.10;;;6.50;99.90;;;;;;5016014;28;20134;-70
2022/03/29 00:22:40;;;;;;;65.53;22.20;;;6.50;99.90;;;;;;5014714;28;20112;-70
2022/03/29 00:25:07;;;;;;;67.88;20.45;;;6.50;99.90;;;;;;4982312;28;20478;-69
2022/03/29 00:27:35;;;;;;;67.75;20.88;;;6.40;99.90;;;;;;5015457;28;20553;-70
2022/03/29 00:30:01;;;;;;;71.03;23.33;;;6.40;99.90;;;;;;5015781;28;20050;-70
2022/03/29 00:32:27;;;;;;;63.70;20.38;;;6.40;99.90;;;;;;5015412;28;20096;-70
2022/03/29 00:34:53;;;;;;;65.68;19.50;;;6.40;99.90;;;;;;5014877;28;20069;-70
2022/03/29 00:37:18;;;;;;;66.68;19.02;;;6.50;99.90;;;;;;5014610;28;20069;-69
2022/03/29 00:39:44;;;;;;;66.85;20.77;;;6.50;99.90;;;;;;5015754;28;20116;-70
2022/03/29 00:42:10;;;;;;;64.90;20.83;;;6.50;99.90;;;;;;4997804;28;20141;-70
2022/03/29 00:44:38;;;;;;;63.38;18.42;;;6.50;99.90;;;;;;4982511;28;20132;-69
2022/03/29 00:47:05;;;;;;;62.25;18.48;;;6.50;99.90;;;;;;5015066;28;20185;-70
2022/03/29 00:49:31;;;;;;;53.70;17.85;;;6.50;99.90;;;;;;4998187;28;20046;-70
2022/03/29 00:52:00;;;;;;;56.70;17.45;;;6.50;99.90;;;;;;5014366;28;20060;-71
2022/03/29 00:54:32;;;;;;;67.35;19.88;;;6.60;99.90;;;;;;5015496;28;20046;-70
2022/03/29 00:57:02;;;;;;;58.53;18.55;;;6.50;99.90;;;;;;5014076;28;20049;-70
2022/03/29 00:59:28;;;;;;;57.55;19.55;;;6.50;99.90;;;;;;4998071;28;20050;-72
2022/03/29 01:01:58;;;;;;;62.38;19.08;;;6.40;99.90;;;;;;5015438;28;20089;-71
2022/03/29 01:04:28;;;;;;;60.78;20.65;;;6.50;99.90;;;;;;5013949;28;20038;-71
2022/03/29 01:06:59;;;;;;;57.53;19.10;;;6.40;99.90;;;;;;4997909;28;20053;-70
2022/03/29 01:09:29;;;;;;;63.38;22.70;;;6.40;99.90;;;;;;4998420;28;20049;-70
2022/03/29 01:11:57;;;;;;;51.03;16.77;;;6.30;99.90;;;;;;5013989;28;20057;-70
2022/03/29 01:14:24;;;;;;;56.15;18.40;;;6.30;99.90;;;;;;5014090;28;20046;-70
2022/03/29 01:19:37;;;;;;;50.60;17.63;;;6.30;99.90;;;;;;5015670;28;20046;-70
2022/03/29 01:22:05;;;;;;;;;;;6.40;99.90;;;;;;4999013;28;20128;-69
2022/03/29 01:24:33;;;;;;;51.55;16.98;;;6.30;99.90;;;;;;5015106;28;19952;-71
2022/03/29 01:27:02;;;;;;;50.90;17.13;;;6.40;99.90;;;;;;5013638;28;20045;-69
2022/03/29 01:29:32;;;;;;;44.55;16.20;;;6.40;99.90;;;;;;5014757;28;20501;-69
2022/03/29 01:32:01;;;;;;;56.83;19.30;;;6.40;99.90;;;;;;4997528;28;20423;-70
2022/03/29 01:34:27;;;;;;;57.10;18.20;;;6.40;99.90;;;;;;5013696;28;20092;-69
2022/03/29 01:36:53;;;;;;;57.00;20.25;;;6.40;99.90;;;;;;5013542;28;20466;-70
2022/03/29 01:39:18;;;;;;;58.17;18.77;;;6.40;99.90;;;;;;5013863;28;20172;-70
2022/03/29 01:41:44;;;;;;;53.15;18.38;;;6.40;99.90;;;;;;5014230;28;20049;-69
2022/03/29 01:44:10;;;;;;;50.42;18.52;;;6.50;99.90;;;;;;5013333;28;20050;-69
2022/03/29 01:46:37;;;;;;;49.23;16.93;;;6.40;99.90;;;;;;5014103;28;20076;-70
2022/03/29 01:49:04;;;;;;;58.90;16.73;;;6.40;99.90;;;;;;5013262;28;20302;-69
2022/03/29 01:51:30;;;;;;;55.53;18.17;;;6.40;99.90;;;;;;5013518;28;20049;-70
2022/03/29 01:53:59;;;;;;;57.05;18.77;;;6.30;99.90;;;;;;4996869;28;20065;-70
2022/03/29 01:56:29;;;;;;;50.72;18.73;;;6.20;99.90;;;;;;5014194;28;20073;-70
2022/03/29 01:58:56;;;;;;;49.20;17.10;;;6.20;99.90;;;;;;4996486;28;20050;-70
2022/03/29 02:01:22;;;;;;;52.67;18.05;;;6.20;99.90;;;;;;5013055;28;20053;-70
2022/03/29 02:03:48;;;;;;;50.03;16.27;;;6.30;99.90;;;;;;5014710;28;20046;-70
2022/03/29 02:06:14;;;;;;;59.55;19.42;;;6.30;99.90;;;;;;5014250;28;20081;-69
2022/03/29 02:08:40;;;;;;;56.95;18.33;;;6.30;99.90;;;;;;5013147;28;20085;-71
2022/03/29 02:11:07;;;;;;;55.00;19.90;;;6.40;99.90;;;;;;5014360;28;20049;-71
2022/03/29 02:13:33;;;;;;;;;;;6.20;99.90;;;;;;5013377;28;20046;-70
2022/03/29 02:15:59;;;;;;;53.63;17.15;;;6.30;99.90;;;;;;5014241;28;19975;-70
2022/03/29 02:18:25;;;;;;;53.75;17.55;;;6.30;99.90;;;;;;5014069;28;20425;-70
2022/03/29 02:20:51;;;;;;;56.20;18.25;;;6.40;99.90;;;;;;5012862;28;20089;-70
2022/03/29 02:23:17;;;;;;;56.92;18.90;;;6.40;99.90;;;;;;4996948;28;20093;-70
2022/03/29 02:25:47;;;;;;;51.75;17.83;;;6.40;99.90;;;;;;5012283;28;20050;-70
2022/03/29 02:28:13;;;;;;;58.35;18.52;;;6.40;99.90;;;;;;5014032;28;20057;-70
2022/03/29 02:30:39;;;;;;;56.40;19.52;;;6.40;99.90;;;;;;5014009;28;20359;-71
2022/03/29 02:33:06;;;;;;;51.00;17.85;;;6.20;99.90;;;;;;5013266;28;20454;-70
2022/03/29 02:35:32;;;;;;;;;;;6.20;99.90;;;;;;5012796;28;20238;-78
2022/03/29 02:37:59;;;;;;;53.00;18.00;;;6.20;99.90;;;;;;4996047;28;19922;-78
2022/03/29 02:40:25;;;;;;;53.67;18.52;;;6.30;99.90;;;;;;4996900;28;20057;-77
2022/03/29 02:42:53;;;;;;;56.13;18.45;;;6.20;99.90;;;;;;5012668;28;20046;-78
2022/03/29 02:45:24;;;;;;;57.08;20.30;;;6.20;99.90;;;;;;4996184;28;20050;-78
2022/03/29 02:47:52;;;;;;;52.30;18.80;;;6.20;99.90;;;;;;4980054;28;20142;-78
2022/03/29 02:50:20;;;;;;;56.30;19.13;;;6.10;99.90;;;;;;4996157;28;20050;-78
2022/03/29 02:52:47;;;;;;;;;;;6.10;99.90;;;;;;5012545;28;20108;-78
2022/03/29 02:55:14;;;;;;;57.20;19.40;;;6.10;99.90;;;;;;5012815;28;20006;-78
2022/03/29 02:57:40;;;;;;;;;;;6.10;99.90;;;;;;4996171;28;20157;-79
2022/03/29 03:00:07;;;;;;;72.20;19.40;;;6.10;99.90;;;;;;4996075;28;19929;-78
2022/03/29 03:02:34;;;;;;;64.90;21.77;;;6.10;99.90;;;;;;4979854;28;20293;-79
2022/03/29 03:05:01;;;;;;;61.95;19.55;;;6.10;99.90;;;;;;4980448;28;20065;-80
2022/03/29 03:07:27;;;;;;;60.70;20.77;;;6.10;99.90;;;;;;5012035;28;20056;-80
2022/03/29 03:09:56;;;;;;;56.08;19.42;;;6.10;99.90;;;;;;4979139;28;20049;-79
2022/03/29 03:12:21;;;;;;;55.58;18.83;;;6.20;99.90;;;;;;5011798;28;20046;-78
2022/03/29 03:14:48;;;;;;;62.13;20.60;;;6.20;99.90;;;;;;4996089;28;20072;-79
2022/03/29 03:17:14;;;;;;;55.70;19.92;;;6.20;99.90;;;;;;4995744;28;20054;-80
2022/03/29 03:19:39;;;;;;;58.38;19.70;;;6.20;99.90;;;;;;4979771;28;20057;-79
2022/03/29 03:22:05;;;;;;;59.70;19.65;;;6.30;99.90;;;;;;5012008;28;20041;-79
2022/03/29 03:24:31;;;;;;;59.80;20.25;;;6.20;99.90;;;;;;4995657;28;20375;-79
2022/03/29 03:26:57;;;;;;;57.75;19.83;;;6.20;99.90;;;;;;5011967;28;20102;-79
2022/03/29 03:29:23;;;;;;;65.47;21.75;;;6.20;99.90;;;;;;5011685;28;20085;-78
2022/03/29 03:31:49;;;;;;;64.78;20.50;;;6.30;99.90;;;;;;5011455;28;20088;-78
2022/03/29 03:34:15;;;;;;;60.15;20.70;;;6.20;99.90;;;;;;4995358;28;20072;-80
2022/03/29 03:36:41;;;;;;;67.05;22.60;;;6.20;99.90;;;;;;5011811;28;20038;-78
2022/03/29 03:39:06;;;;;;;69.18;23.67;;;6.20;99.90;;;;;;5011758;28;20057;-78
2022/03/29 03:41:32;;;;;;;73.65;21.77;;;6.20;99.90;;;;;;5013704;28;20054;-78
2022/03/29 03:43:58;;;;;;;60.80;20.45;;;6.10;99.90;;;;;;5018097;28;20061;-79
2022/03/29 03:46:24;;;;;;;65.40;21.40;;;6.10;99.90;;;;;;5001490;28;20053;-78
2022/03/29 03:48:50;;;;;;;60.08;21.67;;;6.20;99.90;;;;;;5017804;28;20057;-79
2022/03/29 03:51:15;;;;;;;64.50;22.30;;;6.10;99.90;;;;;;5018005;28;20050;-79
2022/03/29 03:53:42;;;;;;;62.88;21.13;;;6.10;99.90;;;;;;5001213;28;20042;-79
2022/03/29 03:56:07;;;;;;;69.13;23.65;;;6.00;99.90;;;;;;5001992;28;20124;-78
2022/03/29 03:58:33;;;;;;;65.10;21.23;;;6.00;99.90;;;;;;5002770;28;20450;-78
2022/03/29 04:00:59;;;;;;;63.05;19.90;;;6.00;99.90;;;;;;5003719;28;20096;-78
2022/03/29 04:03:25;;;;;;;59.83;20.60;;;6.10;99.90;;;;;;5002759;28;20046;-78
2022/03/29 04:05:52;;;;;;;64.90;20.10;;;6.20;99.90;;;;;;5019694;28;20045;-80
2022/03/29 04:08:18;;;;;;;;;;;6.20;99.90;;;;;;5020575;28;20354;-79
2022/03/29 04:10:44;;;;;;;67.67;19.93;;;6.20;99.90;;;;;;5018218;28;20361;-79
2022/03/29 04:13:10;;;;;;;60.55;20.80;;;6.20;99.90;;;;;;5001772;28;20054;-80
2022/03/29 04:15:36;;;;;;;68.20;22.08;;;6.20;99.90;;;;;;5002377;28;20140;-78
2022/03/29 04:18:01;;;;;;;64.00;21.38;;;6.10;99.90;;;;;;5001422;28;20486;-78
2022/03/29 04:20:29;;;;;;;64.30;21.48;;;6.10;99.90;;;;;;5017832;28;20046;-80
2022/03/29 04:22:55;;;;;;;;;;;6.10;99.90;;;;;;5002605;28;20421;-80
2022/03/29 04:25:21;;;;;;;61.53;19.13;;;6.00;99.90;;;;;;5001360;28;19986;-80
2022/03/29 04:27:47;;;;;;;65.80;19.85;;;6.10;99.90;;;;;;5019555;28;20049;-79
2022/03/29 04:30:13;;;;;;;69.38;21.35;;;6.10;99.90;;;;;;5001547;28;20405;-78
2022/03/29 04:32:38;;;;;;;64.07;21.00;;;6.10;99.90;;;;;;5017932;28;20053;-79
2022/03/29 04:35:05;;;;;;;65.93;20.90;;;6.20;99.90;;;;;;5017408;28;20045;-78
2022/03/29 04:37:31;;;;;;;62.95;20.95;;;6.20;99.90;;;;;;4985113;28;20057;-79
2022/03/29 04:39:57;;;;;;;63.67;19.45;;;6.20;99.90;;;;;;5000959;28;20045;-79
2022/03/29 04:42:23;;;;;;;64.90;20.33;;;6.20;99.90;;;;;;4985151;28;20052;-78
2022/03/29 04:44:48;;;;;;;62.22;20.45;;;6.40;99.90;;;;;;5001979;28;20076;-78
2022/03/29 04:47:14;;;;;;;64.55;20.95;;;6.30;99.90;;;;;;5017757;28;20176;-79
2022/03/29 04:49:40;;;;;;;64.53;22.10;;;6.40;99.90;;;;;;5001288;28;20054;-79
2022/03/29 04:52:06;;;;;;;67.65;20.77;;;6.20;99.90;;;;;;5017876;28;20153;-79
2022/03/29 04:54:32;;;;;;;64.80;20.85;;;6.20;99.90;;;;;;5015501;28;20536;-79
2022/03/29 04:57:00;;;;;;;67.22;21.77;;;6.20;99.90;;;;;;5014013;28;20071;-78
2022/03/29 04:59:27;;;;;;;67.40;22.05;;;6.30;99.90;;;;;;4999105;28;20065;-78
2022/03/29 05:01:53;;;;;;;66.45;21.67;;;6.20;99.90;;;;;;5014574;28;20402;-79
2022/03/29 05:04:19;;;;;;;63.17;20.50;;;6.30;99.90;;;;;;5014899;28;20096;-79
2022/03/29 05:06:45;;;;;;;66.47;21.35;;;6.30;99.90;;;;;;4999107;28;20064;-79
2022/03/29 05:09:10;;;;;;;68.40;21.58;;;6.30;99.90;;;;;;5014421;28;20398;-79
2022/03/29 05:11:36;;;;;;;65.10;20.27;;;6.20;99.90;;;;;;4981951;28;20041;-80
2022/03/29 05:14:02;;;;;;;67.85;20.88;;;6.30;99.90;;;;;;5013572;28;20431;-79
2022/03/29 05:16:28;;;;;;;66.97;20.38;;;6.30;99.90;;;;;;5013871;28;20081;-79
2022/03/29 05:18:54;;;;;;;64.45;19.58;;;6.30;99.90;;;;;;4997539;28;20058;-78
2022/03/29 05:21:19;;;;;;;62.22;20.52;;;6.30;99.90;;;;;;4982043;28;20056;-79
2022/03/29 05:23:45;;;;;;;71.38;21.23;;;6.30;99.90;;;;;;5013930;28;20085;-80
2022/03/29 05:26:11;;;;;;;65.60;21.35;;;6.40;99.90;;;;;;5013896;28;20145;-79
2022/03/29 05:28:37;;;;;;;66.65;21.52;;;6.40;99.90;;;;;;4981394;28;20117;-78
2022/03/29 05:31:02;;;;;;;69.05;21.83;;;6.40;99.90;;;;;;4997432;28;20053;-79
2022/03/29 05:33:28;;;;;;;69.82;22.40;;;6.40;99.90;;;;;;4997218;28;20046;-77
2022/03/29 05:35:54;;;;;;;69.00;22.55;;;6.40;99.90;;;;;;5013603;28;20049;-78
2022/03/29 05:38:20;;;;;;;65.38;21.10;;;6.40;99.90;;;;;;4996593;28;20054;-80
2022/03/29 05:40:45;;;;;;;71.22;22.13;;;6.50;99.90;;;;;;5015166;28;20072;-78
2022/03/29 05:43:12;;;;;;;67.53;19.85;;;6.50;99.90;;;;;;4997227;28;20406;-78
2022/03/29 05:45:39;;;;;;;73.38;21.33;;;6.60;99.90;;;;;;5013692;28;20072;-78
2022/03/29 05:50:52;;;;;;;72.82;22.13;;;6.50;99.90;;;;;;5014224;28;20054;-78
2022/03/29 05:53:18;;;;;;;76.22;22.23;;;6.50;99.90;;;;;;5013109;28;20482;-82
2022/03/29 05:55:45;;;;;;;62.83;21.35;;;6.60;99.90;;;;;;5014390;28;20046;-77
2022/03/29 05:58:11;;;;;;;;;;;6.60;99.90;;;;;;5013353;28;20093;-77
2022/03/29 06:00:37;;;;;;;62.45;20.08;;;6.60;99.90;;;;;;5013494;28;19968;-78
2022/03/29 06:03:03;;;;;;;69.32;22.02;;;6.70;99.90;;;;;;5014792;28;20130;-80
2022/03/29 06:05:29;;;;;;;75.38;23.30;;;6.60;99.90;;;;;;4980493;28;20054;-76
2022/03/29 06:07:55;;;;;;;74.28;22.70;;;6.60;99.90;;;;;;4997527;28;20065;-79
2022/03/29 06:10:21;;;;;;;65.60;21.48;;;6.60;99.90;;;;;;5012957;28;20069;-79
2022/03/29 06:12:47;;;;;;;66.65;21.33;;;6.70;99.90;;;;;;4996580;28;20048;-80
2022/03/29 06:15:15;;;;;;;71.82;22.42;;;6.70;99.90;;;;;;4997209;28;20088;-78
2022/03/29 06:17:41;;;;;;;74.68;22.20;;;6.80;99.90;;;;;;4997525;28;20046;-79
2022/03/29 06:20:09;;;;;;;70.90;22.45;;;6.80;99.90;;;;;;5013264;28;20052;-81
2022/03/29 06:22:42;;;;;;;71.00;22.02;;;6.80;99.90;;;;;;5012851;28;20081;-77
2022/03/29 06:25:09;;;;;;;67.78;20.50;;;6.80;99.90;;;;;;5012413;28;20042;-78
2022/03/29 06:27:34;;;;;;;59.67;20.03;;;6.90;99.90;;;;;;4996526;28;20398;-78
2022/03/29 06:30:01;;;;;;;67.13;20.65;;;6.90;99.90;;;;;;5012572;28;20133;-78
2022/03/29 06:32:27;;;;;;;70.93;21.52;;;6.90;99.90;;;;;;5013593;28;20050;-78
2022/03/29 06:34:53;;;;;;;74.60;21.60;;;7.00;99.90;;;;;;5013187;28;20124;-78
2022/03/29 06:37:18;;;;;;;68.47;22.73;;;6.90;99.90;;;;;;5012327;28;20442;-78
2022/03/29 06:39:44;;;;;;;71.60;21.38;;;7.10;99.90;;;;;;4996786;28;20050;-78
2022/03/29 06:42:10;;;;;;;73.63;21.95;;;7.10;99.90;;;;;;4996192;28;20443;-79
2022/03/29 06:44:36;;;;;;;66.43;22.20;;;7.20;99.90;;;;;;5012943;28;20129;-79
2022/03/29 06:47:02;;;;;;;80.32;24.70;;;7.20;99.90;;;;;;4996521;28;20494;-79
2022/03/29 06:49:29;;;;;;;66.75;20.30;;;7.10;99.90;;;;;;5012758;28;20144;-79
2022/03/29 06:51:54;;;;;;;73.97;22.90;;;7.20;99.90;;;;;;4996482;28;20069;-81
2022/03/29 06:54:20;;;;;;;63.17;20.58;;;7.00;99.90;;;;;;4995920;28;20047;-79
2022/03/29 06:56:46;;;;;;;65.07;21.70;;;7.20;99.90;;;;;;4979657;28;20112;-81
2022/03/29 06:59:12;;;;;;;73.95;24.20;;;7.20;99.90;;;;;;5013425;28;20085;-79
2022/03/29 07:01:38;;;;;;;65.18;21.15;;;7.10;99.90;;;;;;4996193;28;20057;-79
2022/03/29 07:04:07;;;;;;;73.30;22.27;;;7.20;99.90;;;;;;5012036;28;20128;-78
2022/03/29 07:06:33;;;;;;;62.50;20.83;;;7.30;99.90;;;;;;4995539;28;20050;-78
2022/03/29 07:11:48;;;;;;;69.40;21.98;;;7.30;99.90;;;;;;5012100;28;20058;-82
2022/03/29 07:14:14;;;;;;;59.67;20.55;;;7.40;99.90;;;;;;5011525;28;20050;-78
2022/03/29 07:16:42;;;;;;;72.13;22.65;;;7.50;99.90;;;;;;5010918;28;20106;-77
2022/03/29 07:19:09;;;;;;;65.72;22.33;;;7.50;99.90;;;;;;5012456;28;20049;-78
2022/03/29 07:21:39;;;;;;;70.63;21.58;;;7.60;99.90;;;;;;5011651;28;20049;-78
2022/03/29 07:24:06;;;;;;;72.88;23.58;;;7.70;99.90;;;;;;5011428;28;20108;-79
2022/03/29 07:26:32;;;;;;;;;;;7.70;99.90;;;;;;5011931;28;20061;-78
2022/03/29 07:28:58;;;;;;;68.55;21.63;;;7.40;99.90;;;;;;4995187;28;19921;-78
2022/03/29 07:31:24;;;;;;;74.32;24.30;;;7.40;99.90;;;;;;5011273;28;20103;-79
2022/03/29 07:33:50;;;;;;;70.25;22.85;;;7.60;99.90;;;;;;5011208;28;20053;-80
2022/03/29 07:36:15;;;;;;;66.07;22.75;;;7.70;99.90;;;;;;5012735;28;20120;-82
2022/03/29 07:38:41;;;;;;;66.97;21.33;;;7.60;99.90;;;;;;5012657;28;20038;-80
2022/03/29 07:41:07;;;;;;;73.35;21.67;;;7.60;99.90;;;;;;5011586;28;20167;-80
2022/03/29 07:43:33;;;;;;;71.40;22.38;;;7.50;99.90;;;;;;5011351;28;20571;-80
2022/03/29 07:45:59;;;;;;;70.22;22.38;;;7.50;99.90;;;;;;5011313;28;20402;-77
2022/03/29 07:48:25;;;;;;;72.90;22.88;;;7.60;99.90;;;;;;5011352;28;20060;-78
2022/03/29 07:50:51;;;;;;;71.28;22.45;;;7.90;99.90;;;;;;4979113;28;20084;-78
2022/03/29 07:53:17;;;;;;;74.95;23.42;;;7.80;99.90;;;;;;5012493;28;20042;-80
2022/03/29 07:55:43;;;;;;;74.55;23.20;;;7.90;99.90;;;;;;5012396;28;20366;-80
2022/03/29 07:58:09;;;;;;;73.03;23.30;;;7.80;99.90;;;;;;4995279;28;20085;-78
2022/03/29 08:00:35;;;;;;;79.68;24.60;;;7.70;99.90;;;;;;5011137;28;20081;-78
2022/03/29 08:03:03;;;;;;;67.70;21.70;;;7.80;99.90;;;;;;5011307;28;20061;-78
2022/03/29 08:05:30;;;;;;;75.35;23.05;;;7.90;99.90;;;;;;5010936;28;20093;-78
2022/03/29 08:07:57;;;;;;;76.97;22.50;;;8.10;99.90;;;;;;4995167;28;20124;-77
2022/03/29 08:10:23;;;;;;;;;;;8.10;99.90;;;;;;4995082;28;20054;-78
2022/03/29 08:12:49;;;;;;;66.10;23.23;;;8.30;99.90;;;;;;4978292;28;19928;-77
2022/03/29 08:15:14;;;;;;;68.00;21.60;;;8.40;99.90;;;;;;5010972;28;20085;-79
2022/03/29 08:17:40;;;;;;;69.45;21.65;;;8.40;99.90;;;;;;4995402;28;20081;-78
2022/03/29 08:20:07;;;;;;;70.35;22.20;;;8.60;99.90;;;;;;5010809;28;20053;-78
2022/03/29 08:22:34;;;;;;;68.57;21.15;;;8.80;99.90;;;;;;5011060;28;20061;-77
2022/03/29 08:25:01;;;;;;;69.00;22.42;;;8.90;99.90;;;;;;5012475;28;20054;-79
2022/03/29 08:27:27;;;;;;;61.15;21.13;;;8.90;99.90;;;;;;4995556;28;20081;-81
2022/03/29 08:29:52;;;;;;;73.20;22.50;;;9.00;99.90;;;;;;5014950;28;20050;-79
2022/03/29 08:32:19;;;;;;;75.57;23.08;;;9.20;99.90;;;;;;4998967;28;20054;-83
2022/03/29 08:34:44;;;;;;;75.38;23.17;;;9.30;99.90;;;;;;4998008;28;20045;-78
2022/03/29 08:37:13;;;;;;;81.07;23.33;;;9.00;99.90;;;;;;5014911;28;20130;-79
2022/03/29 08:39:39;;;;;;;69.35;23.15;;;9.20;99.90;;;;;;5014528;28;20093;-78
2022/03/29 08:42:11;;;;;;;73.72;24.27;;;9.40;99.90;;;;;;4981879;28;20057;-81
2022/03/29 08:44:39;;;;;;;85.10;26.67;;;9.10;99.90;;;;;;4998031;28;20092;-77
2022/03/29 08:47:09;;;;;;;76.43;24.08;;;9.10;99.90;;;;;;4998156;28;20104;-79
2022/03/29 08:49:36;;;;;;;78.75;24.35;;;9.30;99.90;;;;;;4982475;28;20136;-80
2022/03/29 08:52:05;;;;;;;84.60;25.52;;;9.50;99.90;;;;;;5014690;28;20155;-79
2022/03/29 08:54:32;;;;;;;76.95;25.80;;;9.60;99.90;;;;;;5014526;28;20114;-81
2022/03/29 08:56:58;;;;;;;;;;;9.70;99.90;;;;;;4998503;28;20058;-79
2022/03/29 08:59:26;;;;;;;79.97;24.50;;;9.90;99.90;;;;;;5014025;28;19999;-78
2022/03/29 09:01:52;;;;;;;81.70;25.80;;;10.00;99.90;;;;;;5014424;28;20129;-79
2022/03/29 09:04:22;;;;;;;77.65;26.45;;;10.00;99.90;;;;;;4997908;28;20446;-79
2022/03/29 09:07:00;;;;;;;80.93;26.10;;;10.10;99.90;;;;;;4998197;28;20477;-78
2022/03/29 09:09:38;;;;;;;82.30;27.70;;;10.40;99.90;;;;;;5013999;28;20423;-78
2022/03/29 09:12:18;;;;;;;76.05;25.23;;;10.30;99.90;;;;;;4997328;28;20502;-78
2022/03/29 09:14:54;;;;;;;78.85;26.60;;;10.60;99.90;;;;;;4997492;28;20041;-80
2022/03/29 09:17:38;;;;;;;88.40;27.42;;;10.80;99.90;;;;;;5014070;28;20053;-78
2022/03/29 09:20:06;;;;;;;85.78;26.17;;;11.10;99.90;;;;;;5013948;28;20049;-77
2022/03/29 09:22:39;;;;;;;84.07;26.55;;;11.30;99.90;;;;;;5013696;28;20045;-77
2022/03/29 09:25:06;;;;;;;81.30;28.60;;;11.40;99.90;;;;;;4997415;28;20104;-78
2022/03/29 09:28:13;;;;;;;86.05;27.23;;;11.70;99.90;;;;;;5013834;28;20168;-78
2022/03/29 09:30:42;;;;;;;76.28;24.90;;;11.70;99.90;;;;;;4993134;28;20053;-82
2022/03/29 09:33:12;;;;;;;77.38;24.88;;;11.70;99.90;;;;;;5007553;28;20133;-80
2022/03/29 09:35:56;;;;;;;73.78;24.85;;;11.50;99.90;;;;;;5015252;28;20085;-80
2022/03/29 09:38:24;;;;;;;76.07;26.10;;;11.40;99.90;;;;;;5013114;28;20061;-79
2022/03/29 09:40:50;;;;;;;80.28;27.50;;;11.20;99.90;;;;;;4996966;28;20061;-81
2022/03/29 09:43:16;;;;;;;79.30;27.98;;;11.10;99.90;;;;;;5013718;28;20137;-79
2022/03/29 09:45:47;;;;;;;80.43;27.67;;;11.00;99.90;;;;;;4980910;28;20077;-78
2022/03/29 09:48:24;;;;;;;82.63;27.60;;;10.70;99.90;;;;;;4997061;28;20045;-78
2022/03/29 09:50:55;;;;;;;83.63;27.35;;;10.60;99.90;;;;;;4999217;28;20054;-79
2022/03/29 09:53:51;;;;;;;84.38;28.38;;;10.80;99.90;;;;;;4996903;28;20053;-79
2022/03/29 09:56:24;;;;;;;76.07;27.65;;;10.70;99.90;;;;;;5013367;28;20149;-79
2022/03/29 09:59:06;;;;;;;88.22;32.25;;;10.60;99.90;;;;;;5012455;28;20153;-79
2022/03/29 10:01:44;;;;;;;87.47;31.80;;;9.90;99.90;;;;;;5013070;28;20050;-78
2022/03/29 10:04:11;;;;;;;90.57;28.13;;;9.90;99.90;;;;;;5013133;28;20054;-77
2022/03/29 10:06:37;;;;;;;73.70;26.52;;;10.30;99.90;;;;;;5012731;28;20049;-78
2022/03/29 10:11:48;;;;;;;77.18;26.30;;;10.90;99.90;;;;;;5012580;28;20159;-76
2022/03/29 10:14:15;;;;;;;80.28;27.73;;;10.60;99.90;;;;;;5012322;28;20046;-77
2022/03/29 10:16:43;;;;;;;;;;;11.10;99.90;;;;;;4997199;28;20066;-79
2022/03/29 10:19:10;;;;;;;77.22;26.13;;;11.50;99.90;;;;;;5012848;28;19925;-79
2022/03/29 10:21:36;;;;;;;76.68;25.85;;;11.90;99.90;;;;;;4980262;28;20081;-77
2022/03/29 10:24:02;;;;;;;73.90;26.15;;;12.20;99.90;;;;;;4995921;28;20046;-77
2022/03/29 10:26:28;;;;;;;76.72;25.90;;;12.60;99.90;;;;;;4980508;28;20144;-79
2022/03/29 10:28:54;;;;;;;68.23;26.50;;;12.80;99.90;;;;;;4996164;28;20123;-77
2022/03/29 10:31:39;;;;;;;76.88;28.95;;;12.60;99.90;;;;;;4981209;28;20049;-79
2022/03/29 10:34:21;;;;;;;72.35;26.10;;;11.50;99.90;;;;;;5014185;28;20385;-80
2022/03/29 10:37:07;;;;;;;73.75;27.08;;;11.40;99.90;;;;;;5013082;28;20133;-78
2022/03/29 10:40:07;;;;;;;73.80;26.57;;;10.80;99.90;;;;;;5012518;28;20085;-82
2022/03/29 10:42:42;;;;;;;68.63;24.13;;;10.80;99.90;;;;;;4985273;28;20136;-80
2022/03/29 10:45:16;;;;;;;73.25;26.45;;;11.10;99.90;;;;;;5012500;28;20120;-80
2022/03/29 10:48:01;;;;;;;64.57;22.75;;;10.90;99.90;;;;;;5012654;28;20046;-77
2022/03/29 10:50:51;;;;;;;63.58;22.45;;;11.20;99.90;;;;;;4996241;28;20136;-78
2022/03/29 10:53:23;;;;;;;58.88;20.40;;;11.60;99.90;;;;;;5011713;28;20054;-80
2022/03/29 10:56:15;;;;;;;60.38;22.75;;;11.70;99.90;;;;;;5011945;28;20057;-77
2022/03/29 10:59:02;;;;;;;51.58;19.35;;;11.30;99.90;;;;;;5011695;28;20058;-78
2022/03/29 11:01:29;;;;;;;54.42;19.30;;;11.40;99.90;;;;;;4996134;28;20346;-79
2022/03/29 11:04:20;;;;;;;58.63;20.38;;;11.20;99.90;;;;;;5011872;28;20046;-80
2022/03/29 11:07:04;;;;;;;57.05;19.50;;;10.80;99.90;;;;;;4992324;28;20053;-81
2022/03/29 11:09:31;;;;;;;62.25;19.38;;;11.10;99.90;;;;;;5011724;28;20494;-78
2022/03/29 11:11:56;;;;;;;56.10;20.83;;;11.40;99.90;;;;;;5012602;28;20045;-81
2022/03/29 11:14:35;;;;;;;60.10;22.25;;;11.10;99.90;;;;;;5011446;28;20316;-81
2022/03/29 11:17:10;;;;;;;59.95;20.02;;;10.90;99.90;;;;;;4995899;28;20088;-79
2022/03/29 11:19:49;;;;;;;54.00;20.23;;;10.80;99.90;;;;;;4995525;28;20053;-81
2022/03/29 11:22:39;;;;;;;52.83;20.75;;;10.70;99.90;;;;;;4996087;28;20050;-83
2022/03/29 11:25:12;;;;;;;54.28;18.90;;;10.60;99.90;;;;;;5011858;28;20124;-80
2022/03/29 11:27:38;;;;;;;47.72;17.63;;;10.70;99.90;;;;;;5013570;28;20053;-82
2022/03/29 11:30:07;;;;;;;63.00;18.88;;;10.90;99.90;;;;;;5012888;28;20046;-79
2022/03/29 11:32:34;;;;;;;56.90;18.27;;;11.10;99.90;;;;;;5011950;28;20049;-79
2022/03/29 11:35:03;;;;;;;51.38;18.60;;;11.30;99.90;;;;;;4995617;28;20049;-79
2022/03/29 11:37:30;;;;;;;50.28;18.42;;;11.50;99.90;;;;;;5011616;28;20464;-79
2022/03/29 11:39:58;;;;;;;50.83;19.33;;;11.70;99.90;;;;;;4995221;28;20054;-79
2022/03/29 11:42:23;;;;;;;55.45;20.80;;;11.70;99.90;;;;;;4979845;28;20046;-80
2022/03/29 11:44:55;;;;;;;54.28;20.30;;;11.30;99.90;;;;;;5012275;28;20071;-79
2022/03/29 11:47:20;;;;;;;56.67;20.75;;;11.30;99.90;;;;;;4995341;28;20525;-80
2022/03/29 11:49:49;;;;;;;53.35;21.13;;;11.20;99.90;;;;;;4995272;28;20056;-80
2022/03/29 11:52:18;;;;;;;54.78;18.63;;;11.30;99.90;;;;;;4996505;28;20052;-81
2022/03/29 11:54:53;;;;;;;47.03;18.40;;;11.40;99.90;;;;;;4995192;28;20111;-79
2022/03/29 11:57:22;;;;;;;54.58;18.95;;;11.60;99.90;;;;;;4995058;28;20050;-82
2022/03/29 11:59:49;;;;;;;51.28;18.15;;;11.70;99.90;;;;;;5011360;28;20062;-80
2022/03/29 12:02:18;;;;;;;58.85;23.20;;;11.80;99.90;;;;;;5012149;28;20053;-81
2022/03/29 12:04:45;;;;;;;53.45;19.65;;;11.20;99.90;;;;;;4983360;28;20100;-83
2022/03/29 12:07:11;;;;;;;56.85;20.30;;;10.90;99.90;;;;;;5015820;28;20045;-81
2022/03/29 12:09:37;;;;;;;54.72;18.98;;;11.10;99.90;;;;;;5015423;28;20053;-82
2022/03/29 12:12:03;;;;;;;50.90;19.02;;;11.40;99.90;;;;;;5015447;28;20497;-78
2022/03/29 12:14:31;;;;;;;57.83;23.10;;;11.50;99.90;;;;;;5015478;28;20092;-80
2022/03/29 12:17:04;;;;;;;50.28;19.02;;;11.40;99.90;;;;;;4998964;28;20085;-82
2022/03/29 12:19:35;;;;;;;55.63;18.70;;;11.30;99.90;;;;;;4999330;28;20042;-80
2022/03/29 12:22:04;;;;;;;53.00;19.90;;;11.60;99.90;;;;;;4998608;28;20042;-82
2022/03/29 12:24:32;;;;;;;53.20;18.92;;;11.70;99.90;;;;;;5015009;28;20463;-80
2022/03/29 12:27:04;;;;;;;53.85;21.65;;;11.70;99.90;;;;;;5015937;28;20049;-81
2022/03/29 12:29:31;;;;;;;59.97;20.50;;;11.70;99.90;;;;;;4998235;28;20057;-80
2022/03/29 12:32:00;;;;;;;61.38;20.70;;;11.70;99.90;;;;;;5015288;28;20054;-79
2022/03/29 12:34:29;;;;;;;54.38;21.65;;;11.80;99.90;;;;;;5014604;28;20054;-79
2022/03/29 12:36:57;;;;;;;52.40;20.15;;;11.80;99.90;;;;;;5014860;28;20057;-82
2022/03/29 12:39:30;;;;;;;48.15;19.38;;;11.90;99.90;;;;;;4998212;28;20046;-81
2022/03/29 12:41:56;;;;;;;55.50;19.20;;;11.90;99.90;;;;;;5014901;28;20053;-80
2022/03/29 12:44:37;;;;;;;47.38;18.33;;;11.90;99.90;;;;;;5016267;28;20038;-80
2022/03/29 12:47:05;;;;;;;54.58;21.05;;;12.10;99.90;;;;;;5015219;28;20459;-79
2022/03/29 12:49:33;;;;;;;53.95;19.92;;;12.10;99.90;;;;;;5015962;28;20132;-80
2022/03/29 12:52:02;;;;;;;52.30;19.63;;;12.50;99.90;;;;;;5014226;28;20080;-80
2022/03/29 12:54:48;;;;;;;58.92;22.23;;;12.20;99.90;;;;;;5013905;28;20042;-81